Time;durP1;ratioP1;P1;durP2;ratioP2;P2;SDS_P1;SDS_P2;PMS_P1;PMS_P2;Temp;Humidity;BMP_temperature;BMP_pressure;BME280_temperature;BME280_humidity;BME280_pressure;Samples;Min_cycle;Max_cycle;Signal;HPM_P1;HPM_P2
2022/08/09 00:00:19;;;;;;;6.25;5.03;;;14.80;99.90;;;;;;5055345;28;20053;-53
2022/08/09 00:02:46;;;;;;;8.00;5.38;;;14.80;99.90;;;;;;5054847;28;20047;-56
2022/08/09 00:05:18;;;;;;;7.65;5.43;;;14.80;99.90;;;;;;5055213;28;20044;-55
2022/08/09 00:08:09;;;;;;;6.57;5.80;;;14.80;99.90;;;;;;5056023;28;20153;-54
2022/08/09 00:10:38;;;;;;;11.30;5.68;;;14.80;99.90;;;;;;5054901;28;20072;-55
2022/08/09 00:13:08;;;;;;;5.75;5.13;;;14.80;99.90;;;;;;5054532;28;20066;-54
2022/08/09 00:15:45;;;;;;;8.02;5.25;;;14.80;99.90;;;;;;5055388;28;20711;-54
2022/08/09 00:18:28;;;;;;;9.02;5.18;;;14.70;99.90;;;;;;5054794;28;20078;-55
2022/08/09 00:20:56;;;;;;;6.43;5.20;;;14.70;99.90;;;;;;5055512;28;20120;-55
2022/08/09 00:23:23;;;;;;;5.68;5.18;;;14.70;99.90;;;;;;5054805;28;20461;-56
2022/08/09 00:26:11;;;;;;;5.93;5.30;;;14.70;99.90;;;;;;5055950;28;20061;-58
2022/08/09 00:28:39;;;;;;;4.53;4.13;;;14.70;99.90;;;;;;5039146;28;20037;-56
2022/08/09 00:31:06;;;;;;;4.90;4.50;;;14.70;99.90;;;;;;5035619;28;20045;-55
2022/08/09 00:33:54;;;;;;;6.80;5.55;;;14.70;99.90;;;;;;5035498;28;20570;-55
2022/08/09 00:36:22;;;;;;;8.02;4.75;;;14.60;99.90;;;;;;5035162;28;20045;-52
2022/08/09 00:38:57;;;;;;;6.10;4.50;;;14.60;99.90;;;;;;5035582;28;20045;-55
2022/08/09 00:41:24;;;;;;;7.18;4.60;;;14.60;99.90;;;;;;5034702;28;20052;-56
2022/08/09 00:44:11;;;;;;;5.15;4.68;;;14.60;99.90;;;;;;5034897;28;20432;-54
2022/08/09 00:46:53;;;;;;;4.45;4.05;;;14.60;99.90;;;;;;5034883;28;20689;-56
2022/08/09 00:49:30;;;;;;;4.65;4.15;;;14.60;99.90;;;;;;5034721;28;20053;-54
2022/08/09 00:51:57;;;;;;;5.90;4.63;;;14.50;99.90;;;;;;5054142;28;20048;-56
2022/08/09 00:54:32;;;;;;;5.60;4.65;;;14.50;99.90;;;;;;5053906;28;20165;-55
2022/08/09 00:57:03;;;;;;;5.95;4.50;;;14.50;99.90;;;;;;5035369;28;20074;-57
2022/08/09 00:59:39;;;;;;;5.28;4.43;;;14.50;99.90;;;;;;5033966;28;20080;-58
2022/08/09 01:02:20;;;;;;;5.00;4.45;;;14.40;99.90;;;;;;5034587;28;20036;-56
2022/08/09 01:05:14;;;;;;;7.95;4.45;;;14.40;99.90;;;;;;5053453;28;20545;-54
2022/08/09 01:08:02;;;;;;;7.18;4.43;;;14.40;99.90;;;;;;5054507;28;20660;-55
2022/08/09 01:10:43;;;;;;;4.88;4.38;;;14.40;99.90;;;;;;5052039;28;20641;-55
2022/08/09 01:13:35;;;;;;;4.82;4.43;;;14.30;99.90;;;;;;5053666;28;20084;-54
2022/08/09 01:16:30;;;;;;;5.43;4.93;;;14.20;99.90;;;;;;5053628;28;20312;-55
2022/08/09 01:19:01;;;;;;;11.20;5.63;;;14.20;99.90;;;;;;5054650;28;20871;-55
2022/08/09 01:21:58;;;;;;;5.35;4.75;;;14.10;99.90;;;;;;5053969;28;20453;-55
2022/08/09 01:24:28;;;;;;;7.05;5.18;;;14.00;99.90;;;;;;5054226;28;20707;-56
2022/08/09 01:27:04;;;;;;;5.47;4.45;;;14.00;99.90;;;;;;5054677;28;20063;-56
2022/08/09 01:30:04;;;;;;;5.50;5.00;;;14.00;99.90;;;;;;5041490;28;20089;-55
2022/08/09 01:32:45;;;;;;;4.72;4.20;;;14.00;99.90;;;;;;5034021;28;20099;-56
2022/08/09 01:35:44;;;;;;;5.45;4.93;;;14.00;99.90;;;;;;5032802;28;20049;-55
2022/08/09 01:38:18;;;;;;;8.18;5.65;;;14.00;99.90;;;;;;5033640;28;20102;-56
2022/08/09 01:40:58;;;;;;;5.50;5.00;;;13.90;99.90;;;;;;5033602;28;20041;-55
2022/08/09 01:43:35;;;;;;;6.22;4.95;;;13.90;99.90;;;;;;5032938;28;20048;-55
2022/08/09 01:46:30;;;;;;;5.70;5.18;;;13.90;99.90;;;;;;5033176;28;20041;-56
2022/08/09 01:49:04;;;;;;;9.25;5.25;;;13.90;99.90;;;;;;5034593;28;20065;-54
2022/08/09 01:51:48;;;;;;;5.72;4.97;;;13.90;99.90;;;;;;5049957;28;20051;-56
2022/08/09 01:54:40;;;;;;;8.27;4.80;;;13.80;99.90;;;;;;5053817;28;20044;-56
2022/08/09 01:57:23;;;;;;;5.68;4.97;;;13.90;99.90;;;;;;5033311;28;20037;-56
2022/08/09 01:59:54;;;;;;;5.10;4.70;;;13.80;99.90;;;;;;5033997;28;20478;-55
2022/08/09 02:02:29;;;;;;;5.90;4.82;;;13.80;99.90;;;;;;5033030;28;20036;-56
2022/08/09 02:05:05;;;;;;;6.38;5.05;;;13.80;99.90;;;;;;5045900;28;20040;-56
2022/08/09 02:07:56;;;;;;;6.90;4.55;;;13.80;99.90;;;;;;5052631;28;20489;-55
2022/08/09 02:10:48;;;;;;;8.10;5.43;;;13.80;99.90;;;;;;5051404;28;20090;-54
2022/08/09 02:13:19;;;;;;;5.40;4.90;;;13.70;99.90;;;;;;5052980;28;20399;-56
2022/08/09 02:15:54;;;;;;;6.10;4.20;;;13.70;99.90;;;;;;5053078;28;20048;-55
2022/08/09 02:18:25;;;;;;;7.13;5.75;;;13.70;99.90;;;;;;5053786;28;20210;-56
2022/08/09 02:21:00;;;;;;;5.72;5.10;;;13.60;99.90;;;;;;5053068;28;20577;-56
2022/08/09 02:23:40;;;;;;;6.53;5.85;;;13.60;99.90;;;;;;5053440;28;20037;-55
2022/08/09 02:26:11;;;;;;;7.05;4.97;;;13.60;99.90;;;;;;5053221;28;20048;-53
2022/08/09 02:28:58;;;;;;;6.50;5.47;;;13.60;99.90;;;;;;5053356;28;20048;-57
2022/08/09 02:31:35;;;;;;;5.18;4.72;;;13.60;99.90;;;;;;5031842;28;20049;-55
2022/08/09 02:34:16;;;;;;;5.18;4.28;;;13.60;99.90;;;;;;5033041;28;20045;-55
2022/08/09 02:37:06;;;;;;;7.05;5.40;;;13.50;99.90;;;;;;5033880;28;20120;-52
2022/08/09 02:39:44;;;;;;;6.45;4.95;;;13.50;99.90;;;;;;5032796;28;20045;-56
2022/08/09 02:42:21;;;;;;;6.57;4.45;;;13.50;99.90;;;;;;5033435;28;20049;-55
2022/08/09 02:45:01;;;;;;;6.22;4.60;;;13.40;99.90;;;;;;5032736;28;20073;-56
2022/08/09 02:47:31;;;;;;;4.57;4.18;;;13.40;99.90;;;;;;5034186;28;20089;-55
2022/08/09 02:50:36;;;;;;;5.32;4.53;;;13.40;99.90;;;;;;5038391;28;20743;-55
2022/08/09 02:53:26;;;;;;;5.32;4.80;;;13.40;99.90;;;;;;5051170;28;20052;-55
2022/08/09 02:55:57;;;;;;;5.80;5.22;;;13.40;99.90;;;;;;5056549;28;20048;-56
2022/08/09 02:58:28;;;;;;;10.77;4.93;;;13.30;99.90;;;;;;5057098;28;20048;-55
2022/08/09 03:01:05;;;;;;;4.78;4.32;;;13.30;99.90;;;;;;5056648;28;20470;-54
2022/08/09 03:03:36;;;;;;;7.90;4.72;;;13.30;99.90;;;;;;5041137;28;20048;-55
2022/08/09 03:06:24;;;;;;;6.80;4.90;;;13.30;99.90;;;;;;5036876;28;20044;-54
2022/08/09 03:08:54;;;;;;;5.22;4.80;;;13.30;99.90;;;;;;5035339;28;20060;-55
2022/08/09 03:11:22;;;;;;;5.97;5.38;;;13.30;99.90;;;;;;5053950;28;20044;-55
2022/08/09 03:14:11;;;;;;;5.72;5.05;;;13.20;99.90;;;;;;5055062;28;20059;-55
2022/08/09 03:16:39;;;;;;;7.00;4.70;;;13.20;99.90;;;;;;5057051;28;20048;-55
2022/08/09 03:19:15;;;;;;;6.45;4.32;;;13.20;99.90;;;;;;5056775;28;20036;-55
2022/08/09 03:22:03;;;;;;;5.93;5.25;;;13.20;99.90;;;;;;5055683;28;20044;-54
2022/08/09 03:24:30;;;;;;;5.85;5.18;;;13.20;99.90;;;;;;5056197;28;20045;-53
2022/08/09 03:27:17;;;;;;;5.45;4.95;;;13.20;99.90;;;;;;5055985;28;20049;-54
2022/08/09 03:29:51;;;;;;;5.88;4.90;;;13.10;99.90;;;;;;5056700;28;20072;-56
2022/08/09 03:32:24;;;;;;;5.43;4.70;;;13.10;99.90;;;;;;5037747;28;20040;-58
2022/08/09 03:34:52;;;;;;;5.65;5.15;;;13.10;99.90;;;;;;5055167;28;20124;-55
2022/08/09 03:37:20;;;;;;;14.15;5.70;;;13.10;99.90;;;;;;5055853;28;20045;-53
2022/08/09 03:40:07;;;;;;;7.75;5.05;;;13.10;99.90;;;;;;5054638;28;20037;-55
2022/08/09 03:42:39;;;;;;;5.18;4.55;;;13.10;99.90;;;;;;5056253;28;20049;-54
2022/08/09 03:45:09;;;;;;;5.47;4.97;;;13.10;99.90;;;;;;5055198;28;20076;-54
2022/08/09 03:47:37;;;;;;;6.22;5.05;;;13.10;99.90;;;;;;5056249;28;20048;-55
2022/08/09 03:50:09;;;;;;;6.45;5.82;;;13.10;99.90;;;;;;5054972;28;20433;-54
2022/08/09 03:52:39;;;;;;;6.32;4.68;;;13.10;99.90;;;;;;5055615;28;20045;-57
2022/08/09 03:55:09;;;;;;;5.47;4.93;;;13.10;99.90;;;;;;5055007;28;20110;-53
2022/08/09 03:57:40;;;;;;;5.57;5.03;;;13.00;99.90;;;;;;5039081;28;20060;-57
2022/08/09 04:00:24;;;;;;;5.47;4.97;;;13.00;99.90;;;;;;5055636;28;20238;-54
2022/08/09 04:02:52;;;;;;;5.22;4.82;;;13.00;99.90;;;;;;5053667;28;20125;-52
2022/08/09 04:05:23;;;;;;;6.22;4.32;;;12.90;99.90;;;;;;5054707;28;20041;-57
2022/08/09 04:07:54;;;;;;;5.55;5.05;;;12.90;99.90;;;;;;5055497;28;20051;-52
2022/08/09 04:10:24;;;;;;;7.78;5.32;;;12.90;99.90;;;;;;5055400;28;20106;-55
2022/08/09 04:12:57;;;;;;;8.63;4.70;;;12.90;99.90;;;;;;5054719;28;20458;-54
2022/08/09 04:15:30;;;;;;;12.50;5.43;;;12.90;99.90;;;;;;5035287;28;20131;-55
2022/08/09 04:18:18;;;;;;;5.50;5.00;;;13.00;99.90;;;;;;5034293;28;20488;-56
2022/08/09 04:20:48;;;;;;;6.00;5.50;;;13.00;99.90;;;;;;5033939;28;20045;-55
2022/08/09 04:23:15;;;;;;;9.57;4.90;;;13.00;99.90;;;;;;5033984;28;20079;-54
2022/08/09 04:25:49;;;;;;;6.40;5.80;;;13.00;99.90;;;;;;5034687;28;20124;-55
2022/08/09 04:28:22;;;;;;;6.25;5.30;;;13.00;99.90;;;;;;5036003;28;20127;-56
2022/08/09 04:31:06;;;;;;;7.35;5.57;;;13.00;99.90;;;;;;5034245;28;20123;-56
2022/08/09 04:33:39;;;;;;;5.95;4.90;;;13.00;99.90;;;;;;5038696;28;20045;-57
2022/08/09 04:36:22;;;;;;;7.68;5.47;;;13.10;99.90;;;;;;5053129;28;20040;-53
2022/08/09 04:38:50;;;;;;;5.18;4.70;;;13.10;99.90;;;;;;5055530;28;20083;-57
2022/08/09 04:41:18;;;;;;;5.57;4.93;;;13.10;99.90;;;;;;5054877;28;20048;-56
2022/08/09 04:43:53;;;;;;;6.10;5.07;;;13.10;99.90;;;;;;5054120;28;20040;-55
2022/08/09 04:46:35;;;;;;;5.50;4.95;;;13.10;99.90;;;;;;5055518;28;20527;-53
2022/08/09 04:49:22;;;;;;;6.43;5.43;;;13.20;99.90;;;;;;5054847;28;20045;-58
2022/08/09 04:52:09;;;;;;;5.40;5.00;;;13.20;99.90;;;;;;5047302;28;20528;-54
2022/08/09 04:54:36;;;;;;;5.53;5.03;;;13.20;99.90;;;;;;5052332;28;20044;-52
2022/08/09 04:57:03;;;;;;;5.07;4.60;;;13.20;99.90;;;;;;5055281;28;20052;-52
2022/08/09 04:59:35;;;;;;;6.32;5.53;;;13.30;99.90;;;;;;5053013;28;20044;-55
2022/08/09 05:02:02;;;;;;;;;;;13.30;99.90;;;;;;5054826;28;20040;-54
2022/08/09 05:04:29;;;;;;;6.55;5.65;;;13.40;99.90;;;;;;5053594;28;19934;-55
2022/08/09 05:06:57;;;;;;;6.90;5.15;;;13.40;99.90;;;;;;5053857;28;20132;-52
2022/08/09 05:09:24;;;;;;;5.55;4.90;;;13.40;99.90;;;;;;5053988;28;20048;-55
2022/08/09 05:12:11;;;;;;;5.67;5.17;;;13.50;99.90;;;;;;5053496;28;20060;-54
2022/08/09 05:14:38;;;;;;;6.15;5.45;;;13.50;99.90;;;;;;5051934;28;20520;-53
2022/08/09 05:17:07;;;;;;;6.30;5.55;;;13.50;99.90;;;;;;5052699;28;20044;-53
2022/08/09 05:19:54;;;;;;;10.18;5.47;;;13.60;99.90;;;;;;5052562;28;20045;-53
2022/08/09 05:22:23;;;;;;;7.13;5.30;;;13.70;99.90;;;;;;5052926;28;20047;-54
2022/08/09 05:25:11;;;;;;;7.68;5.80;;;13.70;99.90;;;;;;5053420;28;20068;-54
2022/08/09 05:27:41;;;;;;;8.88;5.70;;;13.80;99.90;;;;;;5054239;28;20044;-57
2022/08/09 05:30:14;;;;;;;7.45;6.68;;;13.90;99.90;;;;;;5052776;28;20048;-56
2022/08/09 05:32:46;;;;;;;7.28;6.63;;;14.00;99.90;;;;;;5047387;28;20713;-53
2022/08/09 05:35:19;;;;;;;6.45;5.60;;;14.00;99.90;;;;;;5033726;28;20739;-58
2022/08/09 05:37:48;;;;;;;6.38;5.78;;;14.10;99.90;;;;;;5034199;28;20076;-52
2022/08/09 05:40:16;;;;;;;8.35;5.32;;;14.20;99.90;;;;;;5033972;28;20037;-55
2022/08/09 05:42:44;;;;;;;8.15;5.60;;;14.30;99.90;;;;;;5031508;28;20057;-55
2022/08/09 05:45:12;;;;;;;5.82;5.20;;;14.30;99.90;;;;;;5033752;28;20106;-51
2022/08/09 05:47:41;;;;;;;7.00;4.82;;;14.40;99.90;;;;;;5033469;28;20203;-53
2022/08/09 05:50:24;;;;;;;6.15;5.55;;;14.50;99.90;;;;;;5040623;28;20663;-54
2022/08/09 05:53:11;;;;;;;6.50;5.55;;;14.50;99.90;;;;;;5051636;28;20062;-54
2022/08/09 05:55:58;;;;;;;8.32;5.78;;;14.60;99.90;;;;;;5053740;28;20040;-54
2022/08/09 05:58:28;;;;;;;6.60;5.80;;;14.70;99.90;;;;;;5052203;28;20044;-54
2022/08/09 06:00:55;;;;;;;7.32;5.00;;;14.80;99.90;;;;;;5053009;28;20114;-53
2022/08/09 06:03:24;;;;;;;5.88;5.25;;;14.90;99.90;;;;;;5053733;28;20047;-53
2022/08/09 06:06:00;;;;;;;6.35;5.72;;;15.00;99.90;;;;;;5052013;28;20711;-54
2022/08/09 06:08:32;;;;;;;6.22;5.63;;;15.10;99.90;;;;;;5053812;28;20128;-53
2022/08/09 06:10:59;;;;;;;7.88;5.03;;;15.20;99.90;;;;;;5052862;28;20051;-53
2022/08/09 06:13:27;;;;;;;6.25;5.50;;;15.30;99.90;;;;;;5052275;28;20059;-53
2022/08/09 06:16:01;;;;;;;7.00;6.40;;;15.30;99.90;;;;;;5051730;28;20063;-52
2022/08/09 06:18:31;;;;;;;7.00;6.30;;;15.40;99.90;;;;;;5052526;28;20726;-53
2022/08/09 06:21:00;;;;;;;9.48;7.03;;;15.50;99.90;;;;;;5053306;28;20037;-53
2022/08/09 06:23:31;;;;;;;9.48;6.28;;;15.60;99.90;;;;;;5052642;28;20048;-53
2022/08/09 06:26:19;;;;;;;10.80;6.32;;;15.70;99.90;;;;;;5053435;28;20125;-53
2022/08/09 06:28:54;;;;;;;6.95;6.07;;;15.80;99.90;;;;;;5055189;28;20045;-54
2022/08/09 06:31:32;;;;;;;7.78;6.28;;;15.90;99.90;;;;;;5057823;28;20049;-53
2022/08/09 06:34:20;;;;;;;6.07;5.57;;;16.00;99.90;;;;;;5044846;28;20050;-54
2022/08/09 06:36:50;;;;;;;6.85;5.97;;;16.20;99.90;;;;;;5035480;28;20149;-54
2022/08/09 06:39:29;;;;;;;10.52;7.05;;;16.20;99.90;;;;;;5037500;28;20041;-52
2022/08/09 06:42:19;;;;;;;7.97;7.18;;;16.40;99.90;;;;;;5036636;28;20854;-53
2022/08/09 06:44:50;;;;;;;12.02;8.02;;;16.50;99.90;;;;;;5037700;28;20048;-54
2022/08/09 06:47:21;;;;;;;11.55;8.50;;;16.70;99.90;;;;;;5037254;28;20037;-54
2022/08/09 06:49:50;;;;;;;8.45;7.35;;;16.80;99.90;;;;;;5039681;28;20223;-56
2022/08/09 06:52:44;;;;;;;12.85;8.27;;;17.00;99.90;;;;;;5056097;28;20051;-57
2022/08/09 06:55:19;;;;;;;14.18;7.97;;;17.10;99.90;;;;;;5052819;28;20102;-54
2022/08/09 06:57:49;;;;;;;7.65;7.00;;;17.20;99.90;;;;;;5054545;28;20506;-53
2022/08/09 07:00:31;;;;;;;10.18;7.25;;;17.30;99.90;;;;;;5051259;28;20050;-62
2022/08/09 07:03:18;;;;;;;12.88;7.80;;;17.40;99.90;;;;;;5055411;28;20055;-54
2022/08/09 07:05:54;;;;;;;7.63;6.40;;;17.50;99.90;;;;;;5053840;28;20032;-59
2022/08/09 07:08:30;;;;;;;9.30;7.10;;;17.70;99.90;;;;;;5061021;28;20040;-53
2022/08/09 07:10:57;;;;;;;10.55;7.22;;;17.80;99.90;;;;;;5058039;28;20056;-55
2022/08/09 07:13:24;;;;;;;8.65;6.53;;;18.00;99.90;;;;;;5057703;28;20148;-54
2022/08/09 07:15:56;;;;;;;8.82;6.20;;;18.00;99.90;;;;;;5056786;28;20044;-56
2022/08/09 07:18:43;;;;;;;8.13;6.35;;;18.10;99.90;;;;;;5055586;28;20057;-55
2022/08/09 07:21:13;;;;;;;7.13;6.43;;;18.20;99.90;;;;;;5055953;28;20053;-55
2022/08/09 07:23:41;;;;;;;6.95;6.18;;;18.40;99.90;;;;;;5054746;28;20059;-53
2022/08/09 07:26:24;;;;;;;6.13;5.53;;;18.50;99.90;;;;;;5044646;28;20040;-56
2022/08/09 07:28:51;;;;;;;6.43;5.82;;;18.60;99.90;;;;;;5054502;28;20041;-53
2022/08/09 07:31:38;;;;;;;9.77;6.13;;;18.70;99.90;;;;;;5055908;28;20705;-52
2022/08/09 07:34:13;;;;;;;9.15;5.57;;;18.80;99.90;;;;;;5055838;28;20131;-52
2022/08/09 07:36:48;;;;;;;5.82;5.10;;;19.00;99.90;;;;;;5053258;28;20036;-54
2022/08/09 07:39:15;;;;;;;5.97;5.47;;;19.10;99.90;;;;;;5055303;28;20914;-51
2022/08/09 07:42:03;;;;;;;12.75;4.85;;;19.20;99.90;;;;;;5052781;28;20040;-54
2022/08/09 07:44:32;;;;;;;6.05;4.53;;;19.30;99.90;;;;;;5053754;28;20748;-53
2022/08/09 07:47:19;;;;;;;9.27;5.20;;;19.50;99.90;;;;;;5055667;28;20573;-53
2022/08/09 07:50:06;;;;;;;12.50;5.15;;;19.60;99.90;;;;;;5054575;28;20052;-53
2022/08/09 07:52:36;;;;;;;11.68;4.18;;;19.80;99.90;;;;;;5055236;28;20044;-55
2022/08/09 07:55:04;;;;;;;7.03;5.03;;;19.80;99.90;;;;;;5036041;28;20135;-55
2022/08/09 07:57:34;;;;;;;7.00;4.88;;;20.00;99.90;;;;;;5055930;28;20564;-54
2022/08/09 08:00:04;;;;;;;11.40;4.20;;;20.10;99.90;;;;;;5034933;28;20652;-56
2022/08/09 08:02:41;;;;;;;4.63;3.88;;;20.30;99.90;;;;;;5056273;28;20049;-55
2022/08/09 08:05:15;;;;;;;4.93;4.13;;;20.80;99.90;;;;;;5052586;28;20143;-55
2022/08/09 08:07:45;;;;;;;10.48;3.92;;;21.50;99.90;;;;;;5052643;28;20051;-56
2022/08/09 08:10:32;;;;;;;;;;;22.30;99.90;;;;;;5054062;28;20059;-54
2022/08/09 08:13:00;;;;;;;;;;;23.00;99.90;;;;;;5052925;28;19982;-56
2022/08/09 08:15:29;;;;;;;4.97;3.50;;;23.60;99.90;;;;;;5049313;28;19931;-56
2022/08/09 08:18:04;;;;;;;4.60;3.65;;;24.00;99.90;;;;;;5048260;28;20060;-56
2022/08/09 08:20:33;;;;;;;8.98;4.20;;;24.40;99.90;;;;;;5051523;28;20265;-59
2022/08/09 08:23:03;;;;;;;4.50;3.83;;;24.60;99.90;;;;;;5051188;28;20782;-53
2022/08/09 08:25:45;;;;;;;10.85;4.47;;;24.90;99.90;;;;;;5049280;28;20037;-55
2022/08/09 08:28:16;;;;;;;5.53;3.65;;;25.00;99.90;;;;;;5043765;28;20047;-55
2022/08/09 08:31:00;;;;;;;4.82;3.80;;;25.20;99.90;;;;;;5052757;28;20049;-55
2022/08/09 08:33:39;;;;;;;9.80;3.97;;;25.30;99.90;;;;;;5053967;28;20056;-55
2022/08/09 08:36:23;;;;;;;6.38;3.38;;;25.40;97.70;;;;;;5054168;28;20059;-55
2022/08/09 08:38:55;;;;;;;4.88;3.53;;;25.50;96.50;;;;;;5055091;28;20056;-54
2022/08/09 08:41:22;;;;;;;7.88;3.70;;;25.50;95.80;;;;;;5053803;28;20040;-55
2022/08/09 08:44:08;;;;;;;5.05;4.05;;;25.50;96.10;;;;;;5053317;28;20037;-56
2022/08/09 08:46:40;;;;;;;9.27;3.50;;;25.50;94.20;;;;;;5055192;28;20044;-54
2022/08/09 08:49:27;;;;;;;;;;;25.70;95.10;;;;;;5039132;28;20792;-55
2022/08/09 08:52:12;;;;;;;9.73;3.72;;;25.80;91.70;;;;;;5046692;28;20027;-55
2022/08/09 08:54:59;;;;;;;2.95;2.67;;;25.90;91.10;;;;;;5052543;28;20051;-55
2022/08/09 08:57:29;;;;;;;6.35;3.35;;;26.00;89.80;;;;;;5052762;28;20049;-53
2022/08/09 09:00:03;;;;;;;5.18;2.90;;;26.10;87.00;;;;;;5052649;28;20071;-55
2022/08/09 09:02:48;;;;;;;6.32;2.67;;;26.10;82.80;;;;;;5054727;28;20064;-55
2022/08/09 09:05:24;;;;;;;4.22;2.78;;;26.20;76.60;;;;;;5051942;28;20546;-55
2022/08/09 09:08:13;;;;;;;3.40;2.55;;;26.10;77.00;;;;;;5052791;28;20121;-55
2022/08/09 09:11:01;;;;;;;4.57;2.65;;;26.30;77.90;;;;;;5054324;28;20523;-56
2022/08/09 09:13:38;;;;;;;5.07;2.90;;;26.40;76.50;;;;;;5052370;28;20052;-50
2022/08/09 09:16:28;;;;;;;5.03;2.47;;;26.50;76.40;;;;;;5054391;28;20044;-64
2022/08/09 09:18:58;;;;;;;3.58;2.17;;;26.60;71.80;;;;;;5054280;28;20135;-64
2022/08/09 09:22:10;;;;;;;3.30;2.20;;;26.60;68.80;;;;;;5054536;28;20636;-64
2022/08/09 09:24:50;;;;;;;2.78;2.40;;;26.60;70.60;;;;;;5051814;28;20048;-65
2022/08/09 09:27:25;;;;;;;3.65;2.45;;;26.60;67.80;;;;;;5044154;28;20033;-64
2022/08/09 09:30:12;;;;;;;4.30;2.28;;;26.60;68.10;;;;;;5030907;28;20165;-63
2022/08/09 09:33:01;;;;;;;3.65;2.25;;;26.60;67.90;;;;;;5032749;28;20632;-64
2022/08/09 09:36:00;;;;;;;5.20;2.03;;;26.70;66.90;;;;;;5031794;28;20386;-63
2022/08/09 09:38:56;;;;;;;3.60;2.47;;;26.90;65.90;;;;;;5031414;28;20041;-64
2022/08/09 09:41:27;;;;;;;3.00;2.15;;;27.00;62.10;;;;;;5031620;28;20041;-63
2022/08/09 09:44:06;;;;;;;2.60;2.10;;;27.00;64.70;;;;;;5029136;28;20051;-62
2022/08/09 09:46:41;;;;;;;5.05;2.28;;;27.10;62.50;;;;;;5029906;28;20091;-63
2022/08/09 09:49:20;;;;;;;2.80;1.80;;;27.10;61.60;;;;;;5031844;28;20041;-63
2022/08/09 09:52:08;;;;;;;5.63;2.05;;;27.20;62.40;;;;;;5047682;28;20047;-63
2022/08/09 09:55:06;;;;;;;4.38;2.35;;;27.30;60.00;;;;;;5053114;28;20041;-63
2022/08/09 09:58:02;;;;;;;2.08;1.77;;;27.40;57.80;;;;;;5053822;28;20055;-63
2022/08/09 10:00:53;;;;;;;2.28;2.03;;;27.60;59.80;;;;;;5049604;28;20504;-63
2022/08/09 10:03:46;;;;;;;6.00;2.17;;;27.60;55.90;;;;;;5053193;28;20047;-63
2022/08/09 10:06:27;;;;;;;5.40;1.95;;;27.60;56.30;;;;;;5052785;28;20383;-63
2022/08/09 10:09:01;;;;;;;2.83;1.88;;;27.60;57.10;;;;;;5053037;28;20044;-61
2022/08/09 10:11:38;;;;;;;3.15;1.67;;;27.70;55.90;;;;;;5052410;28;20546;-63
2022/08/09 10:14:28;;;;;;;2.88;2.05;;;27.80;55.80;;;;;;5051176;28;20048;-62
2022/08/09 10:17:09;;;;;;;6.40;1.60;;;28.00;55.60;;;;;;5054355;28;20288;-63
2022/08/09 10:19:57;;;;;;;3.05;1.70;;;28.20;55.70;;;;;;5052552;28;20126;-63
2022/08/09 10:22:31;;;;;;;2.47;1.70;;;28.50;53.50;;;;;;5053320;28;20064;-63
2022/08/09 10:25:06;;;;;;;6.65;2.35;;;28.60;54.40;;;;;;5053068;28;20059;-63
2022/08/09 10:27:45;;;;;;;3.90;2.15;;;28.60;53.50;;;;;;5047126;28;20723;-64
2022/08/09 10:30:25;;;;;;;2.92;1.92;;;28.60;52.50;;;;;;5032974;28;20056;-63
2022/08/09 10:33:14;;;;;;;3.63;2.10;;;28.50;52.90;;;;;;5032728;28;20060;-63
2022/08/09 10:36:03;;;;;;;2.40;1.58;;;28.50;52.30;;;;;;5030465;28;20051;-62
2022/08/09 10:38:31;;;;;;;1.50;1.35;;;28.60;53.10;;;;;;5031636;28;20573;-63
2022/08/09 10:41:18;;;;;;;2.45;1.73;;;28.70;53.20;;;;;;5031387;28;20041;-63
2022/08/09 10:43:49;;;;;;;4.00;1.65;;;28.80;52.90;;;;;;5013262;28;20048;-64
2022/08/09 10:46:38;;;;;;;2.38;1.50;;;28.90;51.60;;;;;;5032829;28;20045;-64
2022/08/09 10:49:59;;;;;;;3.20;1.80;;;28.90;49.80;;;;;;5032721;28;20614;-64
2022/08/09 10:52:47;;;;;;;2.10;1.47;;;28.80;51.40;;;;;;5020944;28;20103;-64
2022/08/09 10:55:19;;;;;;;7.65;2.08;;;28.80;49.90;;;;;;5037648;28;20096;-64
2022/08/09 10:57:48;;;;;;;1.65;1.45;;;28.80;49.80;;;;;;5052566;28;20043;-63
2022/08/09 11:00:39;;;;;;;2.28;1.30;;;28.70;49.90;;;;;;5049989;28;20060;-64
2022/08/09 11:03:26;;;;;;;;;;;28.60;50.10;;;;;;5053007;28;20799;-64
2022/08/09 11:06:14;;;;;;;1.67;1.40;;;28.70;49.80;;;;;;5049775;28;19929;-64
2022/08/09 11:08:42;;;;;;;2.42;1.90;;;28.80;49.60;;;;;;5050211;28;20039;-63
2022/08/09 11:11:18;;;;;;;1.83;1.30;;;28.80;51.30;;;;;;5051005;28;20044;-63
2022/08/09 11:13:45;;;;;;;6.90;2.38;;;28.90;49.70;;;;;;5049213;28;20785;-63
2022/08/09 11:16:37;;;;;;;4.38;1.80;;;28.90;49.40;;;;;;5055786;28;20143;-63
2022/08/09 11:19:07;;;;;;;9.93;1.52;;;28.90;49.40;;;;;;5055979;28;20570;-63
2022/08/09 11:21:50;;;;;;;5.10;1.40;;;28.90;50.30;;;;;;5055170;28;20086;-63
2022/08/09 11:24:56;;;;;;;1.77;1.23;;;29.00;49.30;;;;;;5056009;28;20040;-63
2022/08/09 11:27:35;;;;;;;3.45;1.33;;;28.90;47.60;;;;;;5057490;28;20151;-63
2022/08/09 11:30:22;;;;;;;2.38;1.45;;;28.90;48.00;;;;;;5050436;28;20535;-64
2022/08/09 11:33:18;;;;;;;1.65;1.55;;;29.00;47.90;;;;;;5038999;28;20542;-63
2022/08/09 11:35:46;;;;;;;4.35;1.55;;;29.10;47.00;;;;;;5039430;28;20120;-63
2022/08/09 11:38:23;;;;;;;6.05;1.48;;;29.10;45.90;;;;;;5037201;28;20064;-63
2022/08/09 11:41:27;;;;;;;3.35;1.50;;;29.20;46.80;;;;;;5036565;28;20853;-63
2022/08/09 11:44:04;;;;;;;3.13;1.60;;;29.20;50.00;;;;;;5033329;28;20053;-64
2022/08/09 11:46:55;;;;;;;1.90;1.15;;;29.30;48.00;;;;;;5035677;28;20660;-63
2022/08/09 11:50:00;;;;;;;2.80;1.60;;;29.20;49.00;;;;;;5032234;28;20049;-63
2022/08/09 11:52:59;;;;;;;3.83;1.58;;;29.10;49.70;;;;;;5052863;28;20048;-63
2022/08/09 11:55:48;;;;;;;5.15;1.58;;;29.10;50.20;;;;;;5051796;28;20842;-63
2022/08/09 11:58:30;;;;;;;1.65;1.35;;;29.10;50.20;;;;;;5054799;28;20044;-63
2022/08/09 12:01:07;;;;;;;2.00;1.20;;;29.10;49.70;;;;;;5051944;28;20052;-63
2022/08/09 12:04:03;;;;;;;2.25;1.35;;;29.10;49.70;;;;;;5054162;28;20139;-63
2022/08/09 12:06:32;;;;;;;2.23;1.40;;;29.10;48.60;;;;;;5055957;28;20494;-63
2022/08/09 12:09:10;;;;;;;4.15;1.50;;;29.10;48.50;;;;;;5053588;28;20048;-64
2022/08/09 12:11:58;;;;;;;3.08;1.65;;;29.10;48.20;;;;;;5053051;28;20040;-65
2022/08/09 12:14:32;;;;;;;10.00;1.48;;;29.00;47.90;;;;;;5036872;28;20138;-65
2022/08/09 12:17:12;;;;;;;2.42;1.77;;;28.90;49.30;;;;;;5055783;28;20068;-64
2022/08/09 12:20:01;;;;;;;4.25;1.83;;;28.80;49.00;;;;;;5053544;28;20106;-65
2022/08/09 12:22:30;;;;;;;2.20;1.40;;;28.90;49.80;;;;;;5055625;28;20036;-65
2022/08/09 12:25:15;;;;;;;2.10;1.40;;;29.00;49.50;;;;;;5035566;28;20498;-66
2022/08/09 12:27:43;;;;;;;2.63;1.40;;;29.00;49.50;;;;;;5055899;28;20519;-66
2022/08/09 12:30:30;;;;;;;;;;;29.10;50.40;;;;;;5041875;28;20091;-65
2022/08/09 12:33:03;;;;;;;2.60;1.50;;;29.20;50.60;;;;;;5031931;28;20470;-65
2022/08/09 12:35:30;;;;;;;1.40;1.30;;;29.20;47.10;;;;;;5033534;28;20658;-63
2022/08/09 12:38:29;;;;;;;3.95;1.30;;;29.10;49.10;;;;;;5030209;28;20199;-63
2022/08/09 12:41:04;;;;;;;;;;;29.30;47.90;;;;;;5032513;28;20609;-63
2022/08/09 12:43:34;;;;;;;1.90;1.10;;;29.40;47.70;;;;;;5032473;28;20027;-63
2022/08/09 12:46:23;;;;;;;4.05;1.23;;;29.40;47.70;;;;;;5029381;28;20072;-62
2022/08/09 12:48:54;;;;;;;3.20;1.40;;;29.50;47.90;;;;;;5031063;28;20663;-62
2022/08/09 12:51:22;;;;;;;2.80;1.30;;;29.50;47.40;;;;;;5046861;28;20075;-62
2022/08/09 12:54:09;;;;;;;2.70;1.30;;;29.50;47.60;;;;;;5052782;28;20036;-63
2022/08/09 12:56:47;;;;;;;2.38;1.20;;;29.50;48.90;;;;;;5050531;28;20115;-64
2022/08/09 12:59:22;;;;;;;3.75;1.70;;;29.60;46.80;;;;;;5050714;28;20041;-62
2022/08/09 13:01:58;;;;;;;3.05;1.60;;;29.70;47.20;;;;;;5050774;28;20047;-62
2022/08/09 13:04:26;;;;;;;5.73;3.07;;;29.70;46.00;;;;;;5050883;28;20821;-62
2022/08/09 13:07:17;;;;;;;2.25;1.15;;;29.70;45.70;;;;;;5050573;28;20146;-62
2022/08/09 13:09:46;;;;;;;5.72;1.35;;;29.50;45.50;;;;;;5050500;28;20461;-63
2022/08/09 13:12:28;;;;;;;8.77;1.30;;;29.40;45.70;;;;;;5049867;28;20122;-63
2022/08/09 13:15:08;;;;;;;2.55;1.45;;;29.50;46.10;;;;;;5046693;28;20105;-63
2022/08/09 13:17:35;;;;;;;2.63;1.40;;;29.60;47.50;;;;;;5051483;28;20051;-63
2022/08/09 13:20:35;;;;;;;3.70;1.40;;;29.80;46.70;;;;;;5051070;28;20230;-63
2022/08/09 13:23:39;;;;;;;5.43;1.83;;;29.80;46.10;;;;;;5049805;28;20522;-62
2022/08/09 13:26:46;;;;;;;1.45;1.30;;;29.70;46.10;;;;;;5051418;28;20048;-62
2022/08/09 13:29:20;;;;;;;2.17;1.48;;;29.70;46.90;;;;;;5050940;28;20071;-63
2022/08/09 13:32:07;;;;;;;2.05;1.27;;;29.70;47.40;;;;;;5036498;28;20688;-63
2022/08/09 13:34:45;;;;;;;1.40;1.30;;;29.90;48.30;;;;;;5031098;28;20057;-62
2022/08/09 13:37:13;;;;;;;2.30;1.48;;;30.00;46.10;;;;;;5031803;28;20041;-62
2022/08/09 13:40:05;;;;;;;2.33;1.40;;;30.10;45.90;;;;;;5032303;28;20069;-62
2022/08/09 13:42:52;;;;;;;3.10;1.50;;;30.10;45.10;;;;;;5032171;28;20044;-63
2022/08/09 13:45:20;;;;;;;3.33;1.67;;;30.20;44.60;;;;;;5028810;28;20041;-63